createdAt,value
2023-04-24T00:01:17.981Z,11.40
2023-04-24T00:03:44.700Z,11.40
2023-04-24T00:06:11.452Z,11.40
2023-04-24T00:08:38.095Z,11.40
2023-04-24T00:11:04.797Z,11.40
2023-04-24T00:13:31.539Z,11.50
2023-04-24T00:15:58.266Z,11.40
2023-04-24T00:18:24.848Z,11.40
2023-04-24T00:20:51.490Z,11.20
2023-04-24T00:23:18.125Z,11.20
2023-04-24T00:25:44.797Z,11.10
2023-04-24T00:28:11.411Z,11.10
2023-04-24T00:30:38.115Z,11.00
2023-04-24T00:33:05.359Z,11.00
2023-04-24T00:35:32.019Z,11.00
2023-04-24T00:37:58.965Z,10.90
2023-04-24T00:40:25.604Z,10.80
2023-04-24T00:42:52.336Z,10.70
2023-04-24T00:45:19.185Z,10.70
2023-04-24T00:47:47.549Z,10.50
2023-04-24T00:50:16.815Z,10.40
2023-04-24T00:52:43.498Z,10.40
2023-04-24T00:55:10.346Z,10.40
2023-04-24T00:57:37.777Z,10.30
2023-04-24T01:00:11.274Z,10.30
2023-04-24T01:02:41.349Z,10.30
2023-04-24T01:05:09.216Z,10.30
2023-04-24T01:07:36.785Z,10.30
2023-04-24T01:10:04.334Z,10.20
2023-04-24T01:12:31.252Z,10.20
2023-04-24T01:14:58.252Z,10.20
2023-04-24T01:17:24.946Z,10.10
2023-04-24T01:19:54.625Z,10.00
2023-04-24T01:22:21.740Z,10.00
2023-04-24T01:24:48.494Z,10.00
2023-04-24T01:27:15.776Z,10.10
2023-04-24T01:29:45.705Z,10.20
2023-04-24T01:32:13.005Z,10.30
2023-04-24T01:34:42.120Z,10.40
2023-04-24T01:37:08.829Z,10.40
2023-04-24T01:39:35.919Z,10.40
2023-04-24T01:42:03.332Z,10.20
2023-04-24T01:44:30.393Z,10.10
2023-04-24T01:46:57.216Z,10.00
2023-04-24T01:49:24.412Z,10.00
2023-04-24T01:51:51.096Z,10.00
2023-04-24T01:54:17.709Z,9.90
2023-04-24T01:56:44.764Z,10.00
2023-04-24T01:59:13.139Z,10.00
2023-04-24T02:01:39.945Z,10.10
2023-04-24T02:04:07.986Z,10.10
2023-04-24T02:06:36.129Z,10.10
2023-04-24T02:09:03.922Z,10.10
2023-04-24T02:11:31.034Z,10.10
2023-04-24T02:13:58.316Z,10.10
2023-04-24T02:16:25.677Z,10.10
2023-04-24T02:18:52.493Z,10.00
2023-04-24T02:21:19.177Z,10.00
2023-04-24T02:23:45.843Z,10.00
2023-04-24T02:26:13.596Z,10.00
2023-04-24T02:28:40.365Z,10.10
2023-04-24T02:31:07.370Z,10.00
2023-04-24T02:33:34.190Z,10.00
2023-04-24T02:36:01.152Z,10.00
2023-04-24T02:38:27.826Z,10.00
2023-04-24T02:40:54.485Z,10.00
2023-04-24T02:43:21.418Z,10.00
2023-04-24T02:45:48.290Z,9.90
2023-04-24T02:48:14.914Z,9.90
2023-04-24T02:50:41.630Z,9.80
2023-04-24T02:53:08.371Z,9.90
2023-04-24T02:55:35.334Z,9.90
2023-04-24T02:58:02.076Z,9.90
2023-04-24T03:00:28.686Z,9.90
2023-04-24T03:02:55.569Z,9.90
2023-04-24T03:05:22.579Z,9.90
2023-04-24T03:07:49.253Z,9.90
2023-04-24T03:10:16.136Z,9.90
2023-04-24T03:12:42.762Z,9.80
2023-04-24T03:15:09.934Z,9.70
2023-04-24T03:17:38.034Z,9.70
2023-04-24T03:20:06.573Z,9.60
2023-04-24T03:22:34.662Z,9.60
2023-04-24T03:25:02.820Z,9.60
2023-04-24T03:27:29.693Z,9.50
2023-04-24T03:30:09.198Z,9.50
2023-04-24T03:32:47.828Z,9.60
2023-04-24T03:35:19.217Z,9.60
2023-04-24T03:37:45.952Z,9.60
2023-04-24T03:40:48.084Z,9.80
2023-04-24T03:43:37.709Z,9.90
2023-04-24T03:46:05.515Z,9.90
2023-04-24T03:48:36.345Z,9.90
2023-04-24T03:51:03.540Z,10.00
2023-04-24T03:53:31.537Z,10.20
2023-04-24T03:55:59.402Z,10.20
2023-04-24T03:58:26.032Z,10.30
2023-04-24T04:00:54.418Z,10.30
2023-04-24T04:03:53.583Z,10.30
2023-04-24T04:06:23.878Z,10.40
2023-04-24T04:08:52.453Z,10.40
2023-04-24T04:11:19.049Z,10.40
2023-04-24T04:13:48.728Z,10.40
2023-04-24T04:16:18.320Z,10.40
2023-04-24T04:18:46.344Z,10.40
2023-04-24T04:21:13.146Z,10.40
2023-04-24T04:23:40.872Z,10.30
2023-04-24T04:26:19.954Z,10.30
2023-04-24T04:29:04.372Z,10.20
2023-04-24T04:31:32.527Z,10.10
2023-04-24T04:34:03.616Z,10.10
2023-04-24T04:36:32.185Z,10.20
2023-04-24T04:39:05.992Z,10.20
2023-04-24T04:41:53.864Z,10.30
2023-04-24T04:44:22.482Z,10.30
2023-04-24T04:46:49.518Z,10.40
2023-04-24T04:49:25.023Z,10.40
2023-04-24T04:51:51.985Z,10.50
2023-04-24T04:54:20.348Z,10.50
2023-04-24T04:56:47.079Z,10.40
2023-04-24T04:59:13.801Z,10.40
2023-04-24T05:01:41.553Z,10.40
2023-04-24T05:04:09.255Z,10.40
2023-04-24T05:06:37.611Z,10.50
2023-04-24T05:09:08.320Z,10.50
2023-04-24T05:11:49.917Z,10.50
2023-04-24T05:14:18.813Z,10.50
2023-04-24T05:16:45.649Z,10.40
2023-04-24T05:19:17.733Z,10.40
2023-04-24T05:21:46.350Z,10.40
2023-04-24T05:24:13.143Z,10.40
2023-04-24T05:27:09.043Z,10.40
2023-04-24T05:29:40.030Z,10.30
2023-04-24T05:32:06.902Z,10.10
2023-04-24T05:34:33.628Z,10.00
2023-04-24T05:37:00.281Z,9.80
2023-04-24T05:39:26.978Z,9.70
2023-04-24T05:41:54.555Z,9.70
2023-04-24T05:44:21.211Z,9.70
2023-04-24T05:46:48.555Z,9.80
2023-04-24T05:49:15.836Z,9.80
2023-04-24T05:51:43.539Z,9.90
2023-04-24T05:54:12.942Z,9.90
2023-04-24T05:56:43.036Z,9.90
2023-04-24T05:59:11.591Z,9.90
2023-04-24T06:01:39.053Z,10.00
2023-04-24T06:04:12.176Z,9.90
2023-04-24T06:06:38.920Z,10.00
2023-04-24T06:09:05.823Z,10.00
2023-04-24T06:11:32.755Z,9.90
2023-04-24T06:14:00.049Z,10.00
2023-04-24T06:16:55.928Z,10.00
2023-04-24T06:19:32.393Z,10.00
2023-04-24T06:21:59.161Z,10.00
2023-04-24T06:24:29.400Z,10.10
2023-04-24T06:26:57.646Z,10.00
2023-04-24T06:29:24.277Z,10.00
2023-04-24T06:31:51.115Z,10.00
2023-04-24T06:34:17.809Z,10.10
2023-04-24T06:36:44.606Z,10.20
2023-04-24T06:39:11.316Z,10.20
2023-04-24T06:41:37.927Z,10.20
2023-04-24T06:44:04.547Z,10.20
2023-04-24T06:46:31.332Z,10.30
2023-04-24T06:48:58.076Z,10.20
2023-04-24T06:51:26.731Z,10.20
2023-04-24T06:53:54.758Z,10.30
2023-04-24T06:56:21.676Z,10.20
2023-04-24T06:58:48.373Z,10.20
2023-04-24T07:01:15.210Z,10.20
2023-04-24T07:03:41.939Z,10.10
2023-04-24T07:06:09.198Z,10.10
2023-04-24T07:08:36.776Z,10.10
2023-04-24T07:11:03.656Z,10.10
2023-04-24T07:13:30.517Z,10.10
2023-04-24T07:15:57.345Z,10.10
2023-04-24T07:18:24.037Z,10.10
2023-04-24T07:20:53.466Z,10.00
2023-04-24T07:23:20.717Z,9.90
2023-04-24T07:25:47.864Z,9.90
2023-04-24T07:28:14.490Z,10.00
2023-04-24T07:30:41.181Z,10.00
2023-04-24T07:33:07.982Z,10.10
2023-04-24T07:35:35.420Z,10.10
2023-04-24T07:38:02.151Z,10.10
2023-04-24T07:40:28.730Z,10.10
2023-04-24T07:42:55.316Z,10.20
2023-04-24T07:45:21.968Z,10.20
2023-04-24T07:47:48.645Z,10.10
2023-04-24T07:50:15.317Z,10.20
2023-04-24T07:52:42.251Z,10.20
2023-04-24T07:55:09.316Z,10.20
2023-04-24T07:57:36.139Z,10.20
2023-04-24T08:00:04.281Z,10.20
2023-04-24T08:02:38.352Z,10.20
2023-04-24T08:05:05.637Z,10.30
2023-04-24T08:07:32.595Z,10.30
2023-04-24T08:10:00.305Z,10.40
2023-04-24T08:12:26.981Z,10.50
2023-04-24T08:14:53.640Z,10.50
2023-04-24T08:17:20.242Z,10.50
2023-04-24T08:19:49.041Z,10.70
2023-04-24T08:22:16.419Z,10.70
2023-04-24T08:24:43.137Z,10.60
2023-04-24T08:27:10.208Z,10.60
2023-04-24T08:29:37.311Z,10.50
2023-04-24T08:32:04.035Z,10.40
2023-04-24T08:34:30.810Z,10.30
2023-04-24T08:36:57.466Z,10.40
2023-04-24T08:39:24.118Z,10.30
2023-04-24T08:41:53.415Z,10.30
2023-04-24T08:44:21.161Z,10.40
2023-04-24T08:46:49.823Z,10.40
2023-04-24T08:49:19.478Z,10.30
2023-04-24T08:51:48.176Z,10.30
2023-04-24T08:54:14.998Z,10.30
2023-04-24T08:56:44.998Z,10.40
2023-04-24T08:59:12.272Z,10.30
2023-04-24T09:01:40.932Z,10.30
2023-04-24T09:04:10.975Z,10.50
2023-04-24T09:06:38.107Z,10.70
2023-04-24T09:09:04.815Z,10.80
2023-04-24T09:11:33.221Z,11.00
2023-04-24T09:14:00.399Z,11.20
2023-04-24T09:16:27.998Z,11.60
2023-04-24T09:18:55.787Z,11.90
2023-04-24T09:21:24.182Z,11.60
2023-04-24T09:24:04.858Z,11.30
2023-04-24T09:26:33.513Z,11.00
2023-04-24T09:29:00.802Z,10.80
2023-04-24T09:31:29.564Z,10.80
2023-04-24T09:34:08.208Z,10.80
2023-04-24T09:36:39.412Z,10.60
2023-04-24T09:39:16.313Z,10.60
2023-04-24T09:41:52.767Z,10.50
2023-04-24T09:44:24.035Z,10.50
2023-04-24T09:46:56.088Z,10.50
2023-04-24T09:49:27.535Z,10.50
2023-04-24T09:52:06.762Z,10.50
2023-04-24T09:54:34.140Z,10.40
2023-04-24T09:57:03.706Z,10.40
2023-04-24T09:59:31.090Z,10.30
2023-04-24T10:01:59.624Z,10.20
2023-04-24T10:04:28.502Z,10.20
2023-04-24T10:06:57.032Z,10.20
2023-04-24T10:09:26.074Z,10.30
2023-04-24T10:11:54.408Z,10.50
2023-04-24T10:14:23.914Z,10.60
2023-04-24T10:16:53.471Z,10.70
2023-04-24T10:19:20.873Z,10.80
2023-04-24T10:21:48.060Z,10.60
2023-04-24T10:24:16.829Z,10.60
2023-04-24T10:26:45.428Z,10.60
2023-04-24T10:29:13.884Z,10.70
2023-04-24T10:31:41.307Z,10.70
2023-04-24T10:34:09.846Z,10.50
2023-04-24T10:36:42.315Z,10.30
2023-04-24T10:39:15.670Z,10.20
2023-04-24T10:41:42.806Z,10.10
2023-04-24T10:44:12.009Z,10.10
2023-04-24T10:46:39.981Z,10.10
2023-04-24T10:49:09.525Z,10.00
2023-04-24T10:51:49.401Z,10.10
2023-04-24T10:54:36.897Z,10.10
2023-04-24T10:57:22.621Z,10.10
2023-04-24T11:00:15.123Z,10.50
2023-04-24T11:02:49.332Z,10.50
2023-04-24T11:05:18.442Z,10.50
2023-04-24T11:08:17.611Z,10.70
2023-04-24T11:10:46.710Z,10.90
2023-04-24T11:13:18.156Z,10.50
2023-04-24T11:15:45.001Z,10.20
2023-04-24T11:18:16.399Z,10.10
2023-04-24T11:20:44.520Z,9.80
2023-04-24T11:23:14.023Z,9.60
2023-04-24T11:25:41.332Z,9.50
2023-04-24T11:28:08.213Z,9.40
2023-04-24T11:30:35.033Z,9.50
2023-04-24T11:33:06.113Z,9.50
2023-04-24T11:35:39.901Z,9.60
2023-04-24T11:38:23.600Z,9.50
2023-04-24T11:40:51.408Z,9.50
2023-04-24T11:43:20.812Z,9.30
2023-04-24T11:45:50.712Z,9.20
2023-04-24T11:48:23.429Z,9.20
2023-04-24T11:50:51.388Z,9.20
2023-04-24T11:53:21.484Z,9.00
2023-04-24T11:55:48.150Z,8.90
2023-04-24T11:58:14.909Z,8.90
2023-04-24T12:00:41.582Z,9.00
2023-04-24T12:03:12.909Z,9.10
2023-04-24T12:05:40.825Z,9.00
2023-04-24T12:08:07.846Z,9.00
2023-04-24T12:10:35.838Z,9.00
2023-04-24T12:13:02.799Z,8.90
2023-04-24T12:15:30.162Z,8.90
2023-04-24T12:17:57.754Z,8.90
2023-04-24T12:20:29.496Z,9.00
2023-04-24T12:22:58.171Z,8.90
2023-04-24T12:25:27.078Z,8.80
2023-04-24T12:28:13.609Z,8.60
2023-04-24T12:30:49.261Z,8.60
2023-04-24T12:33:20.882Z,8.40
2023-04-24T12:35:48.907Z,8.40
2023-04-24T12:38:16.890Z,8.30
2023-04-24T12:40:44.337Z,8.30
2023-04-24T12:43:19.392Z,8.20
2023-04-24T12:45:46.587Z,8.10
2023-04-24T12:48:15.111Z,8.00
2023-04-24T12:50:44.148Z,8.00
2023-04-24T12:53:12.585Z,8.00
2023-04-24T12:55:39.186Z,8.10
2023-04-24T12:58:05.784Z,8.20
2023-04-24T13:00:32.627Z,8.20
2023-04-24T13:02:59.538Z,8.20
2023-04-24T13:05:26.314Z,8.20
2023-04-24T13:07:52.954Z,8.30
2023-04-24T13:10:20.045Z,8.30
2023-04-24T13:12:47.290Z,8.30
2023-04-24T13:15:14.443Z,8.20
2023-04-24T13:17:41.397Z,8.30
2023-04-24T13:20:08.500Z,8.30
2023-04-24T13:22:35.268Z,8.40
2023-04-24T13:25:02.034Z,8.40
2023-04-24T13:27:28.630Z,8.30
2023-04-24T13:29:55.245Z,8.30
2023-04-24T13:32:21.949Z,8.30
2023-04-24T13:34:48.859Z,8.30
2023-04-24T13:37:16.453Z,8.20
2023-04-24T13:39:43.103Z,8.00
2023-04-24T13:42:09.941Z,7.90
2023-04-24T13:44:36.565Z,8.00
2023-04-24T13:47:03.552Z,8.00
2023-04-24T13:49:30.354Z,8.10
2023-04-24T13:51:57.581Z,8.00
2023-04-24T13:54:26.541Z,8.00
2023-04-24T13:56:53.413Z,8.10
2023-04-24T13:59:22.229Z,8.10
2023-04-24T14:01:49.374Z,8.10
2023-04-24T14:04:16.459Z,8.20
2023-04-24T14:06:44.610Z,8.10
2023-04-24T14:09:11.376Z,8.00
2023-04-24T14:11:37.991Z,8.00
2023-04-24T14:14:04.991Z,8.00
2023-04-24T14:16:31.937Z,8.00
2023-04-24T14:18:58.749Z,8.10
2023-04-24T14:21:25.594Z,8.10
2023-04-24T14:23:52.177Z,8.20
2023-04-24T14:26:18.811Z,8.20
2023-04-24T14:28:45.468Z,8.10
2023-04-24T14:31:12.419Z,8.10
2023-04-24T14:33:39.084Z,8.10
2023-04-24T14:36:06.586Z,8.10
2023-04-24T14:38:33.644Z,8.10
2023-04-24T14:43:29.976Z,8.30
2023-04-24T14:45:56.624Z,8.50
2023-04-24T14:48:23.276Z,8.60
2023-04-24T14:50:50.108Z,8.50
2023-04-24T14:53:17.338Z,8.50
2023-04-24T14:55:43.966Z,8.50
2023-04-24T14:58:10.694Z,8.50
2023-04-24T15:00:37.639Z,8.50
2023-04-24T15:03:04.958Z,8.50
2023-04-24T15:05:32.359Z,8.50
2023-04-24T15:07:59.159Z,8.50
2023-04-24T15:10:26.474Z,8.50
2023-04-24T15:12:53.221Z,8.50
2023-04-24T15:15:19.883Z,8.50
2023-04-24T15:17:46.578Z,8.60
2023-04-24T15:20:13.456Z,8.50
2023-04-24T15:22:40.123Z,8.50
2023-04-24T15:25:07.331Z,8.40
2023-04-24T15:27:44.621Z,8.50
2023-04-24T15:30:11.992Z,8.50
2023-04-24T15:32:39.239Z,8.50
2023-04-24T15:35:09.106Z,8.60
2023-04-24T15:37:36.988Z,8.60
2023-04-24T15:40:06.063Z,8.70
2023-04-24T15:42:32.795Z,8.70
2023-04-24T15:44:59.485Z,8.60
2023-04-24T15:47:26.955Z,8.50
2023-04-24T15:49:54.471Z,8.50
2023-04-24T15:52:21.752Z,8.40
2023-04-24T15:54:48.447Z,8.40
2023-04-24T15:57:15.266Z,8.20
2023-04-24T15:59:42.266Z,8.10
2023-04-24T16:02:10.367Z,8.10
2023-04-24T16:04:37.589Z,8.00
2023-04-24T16:07:04.461Z,8.00
2023-04-24T16:09:31.092Z,7.90
2023-04-24T16:11:58.162Z,7.90
2023-04-24T16:14:25.606Z,7.90
2023-04-24T16:16:53.756Z,7.90
2023-04-24T16:19:20.545Z,7.80
2023-04-24T16:21:47.195Z,7.80
2023-04-24T16:24:13.906Z,7.80
2023-04-24T16:26:40.647Z,7.80
2023-04-24T16:29:07.255Z,7.80
2023-04-24T16:31:33.907Z,7.80
2023-04-24T16:34:00.811Z,7.90
2023-04-24T16:36:28.554Z,8.00
2023-04-24T16:38:55.219Z,8.00
2023-04-24T16:41:21.868Z,8.00
2023-04-24T16:43:48.549Z,8.00
2023-04-24T16:46:15.248Z,8.00
2023-04-24T16:48:41.850Z,8.00
2023-04-24T16:51:08.479Z,8.00
2023-04-24T16:53:35.239Z,8.10
2023-04-24T16:56:02.339Z,8.00
2023-04-24T16:58:28.946Z,8.00
2023-04-24T17:00:55.607Z,7.90
2023-04-24T17:03:22.481Z,7.90
2023-04-24T17:05:49.933Z,7.90
2023-04-24T17:08:17.001Z,7.80
2023-04-24T17:10:43.616Z,7.90
2023-04-24T17:13:10.267Z,8.00
2023-04-24T17:15:36.949Z,8.00
2023-04-24T17:18:05.497Z,7.90
2023-04-24T17:20:32.210Z,8.10
2023-04-24T17:22:58.851Z,8.60
2023-04-24T17:25:26.212Z,9.10
2023-04-24T17:27:52.882Z,9.40
2023-04-24T17:30:19.631Z,9.00
2023-04-24T17:32:46.716Z,8.90
2023-04-24T17:35:13.430Z,9.10
2023-04-24T17:37:40.075Z,9.40
2023-04-24T17:40:08.114Z,9.50
2023-04-24T17:42:37.585Z,9.60
2023-04-24T17:45:05.303Z,9.80
2023-04-24T17:47:31.920Z,9.60
2023-04-24T17:49:58.627Z,9.10
2023-04-24T17:52:25.229Z,8.80
2023-04-24T17:54:51.878Z,8.50
2023-04-24T17:57:18.475Z,8.30
2023-04-24T17:59:45.241Z,8.10
2023-04-24T18:02:11.957Z,7.90
2023-04-24T18:04:40.479Z,7.80
2023-04-24T18:07:07.363Z,7.80
2023-04-24T18:09:33.971Z,7.80
2023-04-24T18:12:01.545Z,7.80
2023-04-24T18:14:28.429Z,7.80
2023-04-24T18:16:56.881Z,7.80
2023-04-24T18:19:24.706Z,7.80
2023-04-24T18:21:51.400Z,7.80
2023-04-24T18:24:18.904Z,7.70
2023-04-24T18:26:45.512Z,7.70
2023-04-24T18:29:12.217Z,7.70
2023-04-24T18:31:38.912Z,7.70
2023-04-24T18:34:05.720Z,7.60
2023-04-24T18:36:33.107Z,7.60
2023-04-24T18:38:59.754Z,7.60
2023-04-24T18:41:26.407Z,7.60
2023-04-24T18:43:53.046Z,7.50
2023-04-24T18:46:19.888Z,7.50
2023-04-24T18:48:46.715Z,7.50
2023-04-24T18:51:13.739Z,7.50
2023-04-24T18:53:40.543Z,7.40
2023-04-24T18:56:07.224Z,7.50
2023-04-24T18:58:33.826Z,7.50
2023-04-24T19:01:00.641Z,7.50
2023-04-24T19:03:28.269Z,7.40
2023-04-24T19:05:55.050Z,7.40
2023-04-24T19:08:21.646Z,7.30
2023-04-24T19:10:48.314Z,7.30
2023-04-24T19:13:14.907Z,7.20
2023-04-24T19:15:41.534Z,7.20
2023-04-24T19:18:08.209Z,7.20
2023-04-24T19:20:34.871Z,7.20
2023-04-24T19:23:01.563Z,7.20
2023-04-24T19:25:28.243Z,7.30
2023-04-24T19:27:54.924Z,7.30
2023-04-24T19:30:21.628Z,7.20
2023-04-24T19:32:48.314Z,7.30
2023-04-24T19:35:15.040Z,7.40
2023-04-24T19:37:41.779Z,7.50
2023-04-24T19:40:08.827Z,7.40
2023-04-24T19:42:43.234Z,7.30
2023-04-24T19:45:12.180Z,7.20
2023-04-24T19:47:39.186Z,7.20
2023-04-24T19:50:06.908Z,7.10
2023-04-24T19:52:33.510Z,7.10
2023-04-24T19:55:00.210Z,7.00
2023-04-24T19:57:26.816Z,7.00
2023-04-24T19:59:53.392Z,6.90
2023-04-24T20:02:20.093Z,7.00
2023-04-24T20:04:46.953Z,7.00
2023-04-24T20:07:13.688Z,7.00
2023-04-24T20:09:40.276Z,7.00
2023-04-24T20:12:07.074Z,7.00
2023-04-24T20:14:33.700Z,7.10
2023-04-24T20:17:00.382Z,7.20
2023-04-24T20:19:27.114Z,7.30
2023-04-24T20:21:54.267Z,7.40
2023-04-24T20:24:21.028Z,7.50
2023-04-24T20:26:47.664Z,7.60
2023-04-24T20:29:14.291Z,7.60
2023-04-24T20:31:41.637Z,7.60
2023-04-24T20:34:08.615Z,7.60
2023-04-24T20:36:35.331Z,7.60
2023-04-24T20:39:02.145Z,7.60
2023-04-24T20:41:30.226Z,7.60
2023-04-24T20:43:56.956Z,7.60
2023-04-24T20:46:23.774Z,7.60
2023-04-24T20:48:50.821Z,7.60
2023-04-24T20:51:19.503Z,7.60
2023-04-24T20:53:46.351Z,7.60
2023-04-24T20:56:13.012Z,7.60
2023-04-24T20:58:39.938Z,7.60
2023-04-24T21:01:06.770Z,7.50
2023-04-24T21:03:33.534Z,7.40
2023-04-24T21:06:00.435Z,7.40
2023-04-24T21:08:27.092Z,7.40
2023-04-24T21:10:53.763Z,7.30
2023-04-24T21:13:20.408Z,7.40
2023-04-24T21:15:47.097Z,7.40
2023-04-24T21:18:13.864Z,7.50
2023-04-24T21:20:40.617Z,7.40
2023-04-24T21:23:07.466Z,7.40
2023-04-24T21:25:35.691Z,7.40
2023-04-24T21:28:03.309Z,7.40
2023-04-24T21:30:31.048Z,7.50
2023-04-24T21:32:57.812Z,7.40
2023-04-24T21:35:24.480Z,7.30
2023-04-24T21:37:51.352Z,7.20
2023-04-24T21:40:18.074Z,7.20
2023-04-24T21:42:45.012Z,7.10
2023-04-24T21:45:12.230Z,7.10
2023-04-24T21:47:38.981Z,7.10
2023-04-24T21:50:06.197Z,7.20
2023-04-24T21:52:32.824Z,7.20
2023-04-24T21:54:59.445Z,7.20
2023-04-24T21:57:26.154Z,7.30
2023-04-24T21:59:52.991Z,7.30
2023-04-24T22:02:19.695Z,7.30
2023-04-24T22:04:46.570Z,7.30
2023-04-24T22:07:14.601Z,7.30
2023-04-24T22:09:41.192Z,7.30
2023-04-24T22:12:07.911Z,7.20
2023-04-24T22:14:34.520Z,7.20
2023-04-24T22:17:01.217Z,7.20
2023-04-24T22:19:28.245Z,7.20
2023-04-24T22:21:54.975Z,7.20
2023-04-24T22:24:21.610Z,7.20
2023-04-24T22:26:48.698Z,7.20
2023-04-24T22:29:15.398Z,7.20
2023-04-24T22:31:42.292Z,7.20
2023-04-24T22:34:09.390Z,7.10
2023-04-24T22:36:36.122Z,7.20
2023-04-24T22:39:04.912Z,7.10
2023-04-24T22:41:31.698Z,7.10
2023-04-24T22:43:58.369Z,7.10
2023-04-24T22:46:25.043Z,7.10
2023-04-24T22:48:51.814Z,7.00
2023-04-24T22:51:18.771Z,6.90
2023-04-24T22:53:45.969Z,6.90
2023-04-24T22:56:12.702Z,6.90
2023-04-24T22:58:39.387Z,6.90
2023-04-24T23:01:06.426Z,6.90
2023-04-24T23:03:33.545Z,6.90
2023-04-24T23:06:00.392Z,6.90
2023-04-24T23:08:27.441Z,6.90
2023-04-24T23:10:54.074Z,6.90
2023-04-24T23:13:20.963Z,6.90
2023-04-24T23:15:47.570Z,6.90
2023-04-24T23:18:14.231Z,6.90
2023-04-24T23:20:41.383Z,6.80
2023-04-24T23:23:08.021Z,6.80
2023-04-24T23:25:34.773Z,6.80
2023-04-24T23:28:01.475Z,6.70
2023-04-24T23:30:28.219Z,6.70
2023-04-24T23:32:54.923Z,6.60
2023-04-24T23:35:21.652Z,6.50
2023-04-24T23:37:48.329Z,6.50
2023-04-24T23:40:14.980Z,6.60
2023-04-24T23:42:41.675Z,6.60
2023-04-24T23:45:10.588Z,6.60
2023-04-24T23:47:37.767Z,6.60
2023-04-24T23:50:04.773Z,6.60
2023-04-24T23:52:31.588Z,6.60
2023-04-24T23:54:58.271Z,6.60
2023-04-24T23:57:24.916Z,6.70
2023-04-24T23:59:51.580Z,6.60
